Time;durP1;ratioP1;P1;durP2;ratioP2;P2;SDS_P1;SDS_P2;PMS_P1;PMS_P2;Temp;Humidity;BMP_temperature;BMP_pressure;BME280_temperature;BME280_humidity;BME280_pressure;Samples;Min_cycle;Max_cycle;Signal;HPM_P1;HPM_P2
2021/08/24 00:00:05;;;;;;;4.20;1.40;;;22.40;98.20;;;;;;4974634;28;20368;-77
2021/08/24 00:02:31;;;;;;;4.25;1.50;;;22.40;98.20;;;;;;4967407;28;20110;-78
2021/08/24 00:04:57;;;;;;;5.50;1.48;;;22.40;98.20;;;;;;4973946;28;20113;-78
2021/08/24 00:07:22;;;;;;;2.42;1.27;;;22.40;98.20;;;;;;4973949;28;20489;-79
2021/08/24 00:09:48;;;;;;;3.95;1.77;;;22.40;98.20;;;;;;4974870;28;20097;-79
2021/08/24 00:12:14;;;;;;;5.93;1.98;;;22.40;98.20;;;;;;4973668;28;20023;-79
2021/08/24 00:14:40;;;;;;;3.80;1.30;;;22.40;98.20;;;;;;4973955;28;20054;-79
2021/08/24 00:17:05;;;;;;;4.93;1.58;;;22.40;98.20;;;;;;4974170;28;20022;-79
2021/08/24 00:19:31;;;;;;;2.95;1.40;;;22.40;98.20;;;;;;4973741;28;20085;-79
2021/08/24 00:21:57;;;;;;;3.53;1.70;;;22.40;98.20;;;;;;4973612;28;20027;-79
2021/08/24 00:24:22;;;;;;;2.28;1.25;;;22.40;98.20;;;;;;4972870;28;20038;-78
2021/08/24 00:26:48;;;;;;;2.85;1.40;;;22.40;98.20;;;;;;4974473;28;20057;-78
2021/08/24 00:29:14;;;;;;;3.55;1.27;;;22.40;98.30;;;;;;4973940;28;20034;-78
2021/08/24 00:31:40;;;;;;;2.85;1.20;;;22.40;98.30;;;;;;4973884;28;20095;-79
2021/08/24 00:34:06;;;;;;;4.63;1.30;;;22.40;98.30;;;;;;4974243;28;20022;-78
2021/08/24 00:36:32;;;;;;;3.67;1.40;;;22.40;98.30;;;;;;4973452;28;20154;-78
2021/08/24 00:38:58;;;;;;;3.95;1.42;;;22.40;98.40;;;;;;4973846;28;20491;-78
2021/08/24 00:41:25;;;;;;;3.88;1.50;;;22.40;98.40;;;;;;4973212;28;20043;-78
2021/08/24 00:43:51;;;;;;;2.80;1.20;;;22.40;98.40;;;;;;4974310;28;20026;-78
2021/08/24 00:46:44;;;;;;;3.35;1.58;;;22.40;98.40;;;;;;4974028;28;20491;-78
2021/08/24 00:49:29;;;;;;;3.40;1.45;;;22.40;98.40;;;;;;4972364;28;20034;-78
2021/08/24 00:52:16;;;;;;;3.08;1.42;;;22.40;98.50;;;;;;4973081;28;20432;-78
2021/08/24 00:54:43;;;;;;;4.45;1.40;;;22.40;98.40;;;;;;4973152;28;20037;-78
2021/08/24 00:57:22;;;;;;;3.05;1.13;;;22.40;98.80;;;;;;4973579;28;20073;-77
2021/08/24 00:59:49;;;;;;;4.53;1.10;;;22.40;98.50;;;;;;4974060;28;20054;-77
2021/08/24 01:02:20;;;;;;;2.63;1.30;;;22.40;98.40;;;;;;4973092;28;20031;-77
2021/08/24 01:04:50;;;;;;;3.00;1.38;;;22.40;98.50;;;;;;4974137;28;20034;-77
2021/08/24 01:07:19;;;;;;;2.30;1.45;;;22.40;98.40;;;;;;4973306;28;20055;-78
2021/08/24 01:10:05;;;;;;;3.33;1.52;;;22.30;98.40;;;;;;4972063;28;20030;-78
2021/08/24 01:12:36;;;;;;;;;;;22.40;98.40;;;;;;4966437;28;20057;-78
2021/08/24 01:15:36;;;;;;;3.88;1.25;;;22.40;98.40;;;;;;4955347;28;20009;-77
2021/08/24 01:18:09;;;;;;;2.85;1.17;;;22.40;98.40;;;;;;4973325;28;20114;-77
2021/08/24 01:21:16;;;;;;;3.00;1.23;;;22.40;98.40;;;;;;4973006;28;20023;-77
2021/08/24 01:24:00;;;;;;;2.28;1.38;;;22.30;98.30;;;;;;4962074;28;20519;-78
2021/08/24 01:26:39;;;;;;;3.05;0.98;;;22.30;98.30;;;;;;4972632;28;20573;-78
2021/08/24 01:29:17;;;;;;;3.78;1.50;;;22.40;98.30;;;;;;4955098;28;20142;-78
2021/08/24 01:31:57;;;;;;;4.15;1.75;;;22.30;98.30;;;;;;4971357;28;20038;-77
2021/08/24 01:34:45;;;;;;;2.25;1.23;;;22.30;98.20;;;;;;4972467;28;20495;-78
2021/08/24 01:37:39;;;;;;;3.55;1.23;;;22.30;98.20;;;;;;4972181;28;20086;-78
2021/08/24 01:40:35;;;;;;;2.42;1.27;;;22.30;98.20;;;;;;4972910;28;20049;-78
2021/08/24 01:43:03;;;;;;;1.45;0.80;;;22.30;98.20;;;;;;4966045;28;20043;-78
2021/08/24 01:45:45;;;;;;;4.45;1.70;;;22.30;98.20;;;;;;4972473;28;20027;-78
2021/08/24 01:48:16;;;;;;;2.17;1.30;;;22.30;98.10;;;;;;4972602;28;20390;-78
2021/08/24 01:50:55;;;;;;;3.40;1.35;;;22.30;98.20;;;;;;4972654;28;20042;-78
2021/08/24 01:53:28;;;;;;;3.55;1.13;;;22.30;98.10;;;;;;4971333;28;20031;-77
2021/08/24 01:56:01;;;;;;;2.20;1.15;;;22.30;98.10;;;;;;4963747;28;20034;-78
2021/08/24 01:58:38;;;;;;;1.73;1.10;;;22.30;98.00;;;;;;4972208;28;20023;-77
2021/08/24 02:01:07;;;;;;;3.50;1.27;;;22.20;98.00;;;;;;4972481;28;20490;-77
2021/08/24 02:03:37;;;;;;;2.90;1.50;;;22.30;98.00;;;;;;4957104;28;20023;-77
2021/08/24 02:06:09;;;;;;;2.03;1.10;;;22.20;98.00;;;;;;4972535;28;20518;-77
2021/08/24 02:08:38;;;;;;;5.53;1.48;;;22.30;98.00;;;;;;4971429;28;20027;-77
2021/08/24 02:11:05;;;;;;;2.70;1.48;;;22.30;97.90;;;;;;4972372;28;20476;-77
2021/08/24 02:13:42;;;;;;;4.07;1.13;;;22.30;97.90;;;;;;4972342;28;20027;-77
2021/08/24 02:16:11;;;;;;;3.38;1.20;;;22.20;97.80;;;;;;4972003;28;20029;-77
2021/08/24 02:18:41;;;;;;;2.38;1.20;;;22.20;97.80;;;;;;4971962;28;20033;-77
2021/08/24 02:21:15;;;;;;;3.17;1.10;;;22.20;97.80;;;;;;4971882;28;20023;-77
2021/08/24 02:23:45;;;;;;;2.03;1.27;;;22.20;97.80;;;;;;4971435;28;20041;-77
2021/08/24 02:26:15;;;;;;;3.10;1.50;;;22.20;97.70;;;;;;4972000;28;20027;-77
2021/08/24 02:28:45;;;;;;;2.72;1.20;;;22.20;97.70;;;;;;4971820;28;20479;-77
2021/08/24 02:31:17;;;;;;;3.38;1.30;;;22.20;97.70;;;;;;4971965;28;20491;-77
2021/08/24 02:33:51;;;;;;;2.10;1.08;;;22.20;97.70;;;;;;4953893;28;20061;-77
2021/08/24 02:36:18;;;;;;;2.80;1.35;;;22.20;97.60;;;;;;4962139;28;20057;-77
2021/08/24 02:39:00;;;;;;;2.17;1.20;;;22.20;97.60;;;;;;4977836;28;20022;-77
2021/08/24 02:42:02;;;;;;;2.53;1.20;;;22.20;97.60;;;;;;4978197;28;20025;-78
2021/08/24 02:44:36;;;;;;;2.03;1.10;;;22.20;97.50;;;;;;4978119;28;20027;-78
2021/08/24 02:47:03;;;;;;;2.17;1.38;;;22.20;97.50;;;;;;4978396;28;20026;-78
2021/08/24 02:49:31;;;;;;;2.45;1.15;;;22.20;97.50;;;;;;4977845;28;20031;-78
2021/08/24 02:52:02;;;;;;;3.25;1.27;;;22.20;97.40;;;;;;4978369;28;20039;-78
2021/08/24 02:54:35;;;;;;;3.60;1.10;;;22.20;97.40;;;;;;4977046;28;20439;-78
2021/08/24 02:57:01;;;;;;;2.35;1.30;;;22.20;97.30;;;;;;4960810;28;20118;-77
2021/08/24 02:59:28;;;;;;;2.17;1.45;;;22.10;97.60;;;;;;4978335;28;20109;-78
2021/08/24 03:01:55;;;;;;;2.03;1.13;;;22.10;97.20;;;;;;4977892;28;20467;-77
2021/08/24 03:04:21;;;;;;;2.67;1.45;;;22.10;97.20;;;;;;4977873;28;20451;-77
2021/08/24 03:06:50;;;;;;;2.28;1.10;;;22.20;97.10;;;;;;4978291;28;20035;-77
2021/08/24 03:09:19;;;;;;;2.42;1.10;;;22.10;97.10;;;;;;4978021;28;20118;-77
2021/08/24 03:11:54;;;;;;;2.83;1.52;;;22.10;97.10;;;;;;4977813;28;20030;-77
2021/08/24 03:14:27;;;;;;;2.28;1.27;;;22.10;97.10;;;;;;4978889;28;20031;-77
2021/08/24 03:17:03;;;;;;;3.08;1.10;;;22.10;97.00;;;;;;4978192;28;20133;-77
2021/08/24 03:19:34;;;;;;;2.20;1.27;;;22.10;97.00;;;;;;4977932;28;20054;-77
2021/08/24 03:22:02;;;;;;;1.75;1.25;;;22.10;97.00;;;;;;4978267;28;20126;-77
2021/08/24 03:24:29;;;;;;;2.13;1.10;;;22.10;96.90;;;;;;4976834;28;20019;-77
2021/08/24 03:26:56;;;;;;;2.70;1.20;;;22.10;96.90;;;;;;4960866;28;20058;-77
2021/08/24 03:29:22;;;;;;;2.60;1.42;;;22.10;96.90;;;;;;4977606;28;20034;-77
2021/08/24 03:31:55;;;;;;;3.25;1.35;;;22.10;96.90;;;;;;4976846;28;20556;-77
2021/08/24 03:34:21;;;;;;;1.92;1.02;;;22.10;96.80;;;;;;4978356;28;20015;-77
2021/08/24 03:36:47;;;;;;;2.03;1.15;;;22.10;96.90;;;;;;4978190;28;20035;-76
2021/08/24 03:39:13;;;;;;;2.28;1.33;;;22.10;96.90;;;;;;4976312;28;20023;-76
2021/08/24 03:41:39;;;;;;;4.45;1.15;;;22.10;96.80;;;;;;4976468;28;20403;-77
2021/08/24 03:44:04;;;;;;;2.22;1.10;;;22.10;96.80;;;;;;4976567;28;20027;-77
2021/08/24 03:46:30;;;;;;;2.15;1.13;;;22.10;96.80;;;;;;4974737;28;20456;-77
2021/08/24 03:48:56;;;;;;;1.80;1.20;;;22.10;96.70;;;;;;4973867;28;20029;-77
2021/08/24 03:51:21;;;;;;;1.92;1.10;;;22.10;96.70;;;;;;4974232;28;20043;-77
2021/08/24 03:53:47;;;;;;;2.97;1.70;;;22.10;96.70;;;;;;4974702;28;20023;-77
2021/08/24 03:56:13;;;;;;;2.20;1.10;;;22.00;96.60;;;;;;4975004;28;20034;-77
2021/08/24 03:58:39;;;;;;;3.20;1.20;;;22.00;96.50;;;;;;4975035;28;20114;-77
2021/08/24 04:01:14;;;;;;;2.28;1.05;;;22.00;96.50;;;;;;4974926;28;20054;-77
2021/08/24 04:03:41;;;;;;;1.15;0.75;;;22.00;96.40;;;;;;4974352;28;20027;-77
2021/08/24 04:06:06;;;;;;;1.63;1.08;;;22.00;96.40;;;;;;4973301;28;20027;-77
2021/08/24 04:08:32;;;;;;;2.15;1.13;;;22.00;96.40;;;;;;4974224;28;20049;-77
2021/08/24 04:11:01;;;;;;;2.88;1.38;;;22.00;96.30;;;;;;4974305;28;20113;-77
2021/08/24 04:13:26;;;;;;;1.27;0.80;;;22.00;96.30;;;;;;4957117;28;20487;-77
2021/08/24 04:15:52;;;;;;;2.72;1.20;;;22.00;96.20;;;;;;4972799;28;20073;-77
2021/08/24 04:18:18;;;;;;;2.65;1.42;;;22.00;96.30;;;;;;4974561;28;20031;-77
2021/08/24 04:20:43;;;;;;;2.13;0.98;;;22.00;96.20;;;;;;4974296;28;20067;-77
2021/08/24 04:23:17;;;;;;;3.10;1.10;;;22.00;96.20;;;;;;4973319;28;20574;-78
2021/08/24 04:25:43;;;;;;;2.70;1.42;;;22.00;96.30;;;;;;4973473;28;20035;-78
2021/08/24 04:28:09;;;;;;;2.17;0.90;;;22.00;96.10;;;;;;4973969;28;20365;-77
2021/08/24 04:30:36;;;;;;;2.35;1.23;;;22.00;96.20;;;;;;4973453;28;20056;-77
2021/08/24 04:33:02;;;;;;;2.55;1.23;;;22.00;96.30;;;;;;4974048;28;20027;-77
2021/08/24 04:35:27;;;;;;;2.38;1.30;;;22.00;96.10;;;;;;4974104;28;20026;-77
2021/08/24 04:37:53;;;;;;;1.60;1.00;;;22.00;96.00;;;;;;4973653;28;20042;-77
2021/08/24 04:40:20;;;;;;;2.25;1.20;;;21.90;96.00;;;;;;4973606;28;20022;-77
2021/08/24 04:42:46;;;;;;;2.15;1.05;;;22.00;96.10;;;;;;4973445;28;20038;-77
2021/08/24 04:45:12;;;;;;;1.77;1.00;;;21.90;96.00;;;;;;4973914;28;20062;-76
2021/08/24 04:47:38;;;;;;;3.78;1.27;;;21.90;96.00;;;;;;4973324;28;20093;-76
2021/08/24 04:50:05;;;;;;;2.10;1.13;;;22.00;96.00;;;;;;4973505;28;20030;-76
2021/08/24 04:52:31;;;;;;;2.60;0.90;;;21.90;95.90;;;;;;4973188;28;20070;-77
2021/08/24 04:54:56;;;;;;;2.38;1.00;;;21.90;95.90;;;;;;4973092;28;20054;-77
2021/08/24 04:57:22;;;;;;;4.80;1.52;;;21.90;95.80;;;;;;4973253;28;20110;-77
2021/08/24 04:59:48;;;;;;;1.92;0.88;;;21.90;95.80;;;;;;4973743;28;20371;-77
2021/08/24 05:02:14;;;;;;;2.15;1.10;;;21.90;95.80;;;;;;4955791;28;20093;-77
2021/08/24 05:04:40;;;;;;;2.30;1.10;;;21.90;95.70;;;;;;4973103;28;20027;-77
2021/08/24 05:07:05;;;;;;;2.58;1.33;;;21.90;95.70;;;;;;4973600;28;20117;-77
2021/08/24 05:09:31;;;;;;;3.08;1.50;;;21.90;95.70;;;;;;4972755;28;20019;-77
2021/08/24 05:11:57;;;;;;;2.10;1.35;;;21.90;95.60;;;;;;4952505;28;20031;-77
2021/08/24 05:14:23;;;;;;;1.95;0.90;;;21.90;95.60;;;;;;4972163;28;20464;-78
2021/08/24 05:16:59;;;;;;;2.15;0.90;;;21.90;95.60;;;;;;4973087;28;20033;-77
2021/08/24 05:19:24;;;;;;;;;;;21.90;95.60;;;;;;4973266;28;20105;-76
2021/08/24 05:21:50;;;;;;;2.03;0.95;;;21.90;95.50;;;;;;4973235;28;20361;-78
2021/08/24 05:24:16;;;;;;;2.40;1.15;;;21.90;95.50;;;;;;4973170;28;20025;-78
2021/08/24 05:26:42;;;;;;;1.98;1.10;;;21.90;95.50;;;;;;4972172;28;20109;-77
2021/08/24 05:29:07;;;;;;;2.40;1.20;;;21.90;95.40;;;;;;4971863;28;20451;-78
2021/08/24 05:31:33;;;;;;;3.30;1.40;;;21.90;95.40;;;;;;4968455;28;20043;-77
2021/08/24 05:33:59;;;;;;;2.55;1.00;;;21.90;95.50;;;;;;4972693;28;20482;-77
2021/08/24 05:36:25;;;;;;;3.72;1.40;;;21.80;95.50;;;;;;4970304;28;20030;-78
2021/08/24 05:38:51;;;;;;;2.20;1.13;;;21.80;95.40;;;;;;4973250;28;20035;-78
2021/08/24 05:41:17;;;;;;;3.03;1.25;;;21.90;95.50;;;;;;4972525;28;20113;-77
2021/08/24 05:43:42;;;;;;;2.55;1.05;;;21.90;95.50;;;;;;4972537;28;20178;-78
2021/08/24 05:46:11;;;;;;;3.65;1.20;;;21.80;95.40;;;;;;4971526;28;20043;-78
2021/08/24 05:48:38;;;;;;;2.38;1.23;;;21.80;95.40;;;;;;4971557;28;20031;-77
2021/08/24 05:51:15;;;;;;;2.00;0.98;;;21.80;95.30;;;;;;4972039;28;20047;-77
2021/08/24 05:53:42;;;;;;;1.88;1.05;;;21.80;95.30;;;;;;4971668;28;20126;-78
2021/08/24 05:56:13;;;;;;;1.65;1.15;;;21.80;95.30;;;;;;4972211;28;20098;-77
2021/08/24 05:58:38;;;;;;;3.78;1.30;;;21.80;95.30;;;;;;4971890;28;20027;-78
2021/08/24 06:01:05;;;;;;;2.90;0.98;;;21.80;95.20;;;;;;4972522;28;20038;-78
2021/08/24 06:03:31;;;;;;;2.72;1.40;;;21.80;95.30;;;;;;4971510;28;20021;-78
2021/08/24 06:05:58;;;;;;;1.45;1.02;;;21.80;95.40;;;;;;4972635;28;20102;-78
2021/08/24 06:08:25;;;;;;;2.58;1.58;;;21.80;95.40;;;;;;4971671;28;20029;-81
2021/08/24 06:10:50;;;;;;;2.00;1.00;;;21.80;95.40;;;;;;4971823;28;20491;-78
2021/08/24 06:13:16;;;;;;;1.63;0.95;;;21.80;95.20;;;;;;4972704;28;20026;-78
2021/08/24 06:15:42;;;;;;;2.78;1.10;;;21.80;95.30;;;;;;4971141;28;20026;-77
2021/08/24 06:18:07;;;;;;;1.88;0.93;;;21.80;95.30;;;;;;4962094;28;20057;-76
2021/08/24 06:20:33;;;;;;;5.30;1.50;;;21.80;95.40;;;;;;4963584;28;20126;-77
2021/08/24 06:22:59;;;;;;;2.75;1.20;;;21.80;95.30;;;;;;4959522;28;20078;-77
2021/08/24 06:25:27;;;;;;;3.25;1.40;;;21.70;95.20;;;;;;4963534;28;20057;-86
2021/08/24 06:27:53;;;;;;;2.28;1.08;;;21.80;95.30;;;;;;4972768;28;20038;-82
2021/08/24 06:30:20;;;;;;;2.90;1.52;;;21.80;95.40;;;;;;4972719;28;20027;-78
2021/08/24 06:32:50;;;;;;;4.20;2.13;;;21.70;95.40;;;;;;4971881;28;20022;-79
2021/08/24 06:35:16;;;;;;;4.65;1.70;;;21.70;95.40;;;;;;4972243;28;20081;-79
2021/08/24 06:37:42;;;;;;;10.50;4.03;;;21.70;95.40;;;;;;4971870;28;20434;-79
2021/08/24 06:40:09;;;;;;;76.68;45.75;;;21.70;95.50;;;;;;4972030;28;20023;-80
2021/08/24 06:42:44;;;;;;;93.10;58.30;;;21.80;95.60;;;;;;4971150;28;20603;-80
2021/08/24 06:45:20;;;;;;;75.20;43.40;;;21.80;95.60;;;;;;4971841;28;20042;-79
2021/08/24 06:47:46;;;;;;;68.65;41.47;;;21.80;95.70;;;;;;4971873;28;20030;-79
2021/08/24 06:50:12;;;;;;;63.67;39.95;;;21.70;95.70;;;;;;4971740;28;20046;-80
2021/08/24 06:52:37;;;;;;;64.95;39.30;;;21.80;95.70;;;;;;4971399;28;20018;-80
2021/08/24 06:55:04;;;;;;;59.58;37.50;;;21.80;95.80;;;;;;4971209;28;20065;-79
2021/08/24 06:57:30;;;;;;;72.68;42.15;;;21.80;95.80;;;;;;4970734;28;20062;-79
2021/08/24 06:59:55;;;;;;;60.15;35.67;;;21.80;95.80;;;;;;4971329;28;20059;-79
2021/08/24 07:02:21;;;;;;;61.92;38.45;;;21.80;95.80;;;;;;4971334;28;20034;-77
2021/08/24 07:04:48;;;;;;;54.15;31.83;;;21.80;95.90;;;;;;4972240;28;20045;-79
2021/08/24 07:07:15;;;;;;;59.13;33.17;;;21.80;95.90;;;;;;4972059;28;20041;-79
2021/08/24 07:09:41;;;;;;;44.78;25.65;;;21.80;95.90;;;;;;4971755;28;20574;-78
2021/08/24 07:12:06;;;;;;;37.42;23.10;;;21.80;95.80;;;;;;4971988;28;20118;-79
2021/08/24 07:14:32;;;;;;;42.28;24.48;;;21.80;95.80;;;;;;4971895;28;20033;-78
2021/08/24 07:16:57;;;;;;;33.72;21.77;;;21.80;95.80;;;;;;4971330;28;20109;-78
2021/08/24 07:19:23;;;;;;;39.05;24.95;;;21.80;95.80;;;;;;4971409;28;20506;-83
2021/08/24 07:21:49;;;;;;;46.72;26.95;;;21.80;95.70;;;;;;4974165;28;20034;-79
2021/08/24 07:24:15;;;;;;;38.88;24.23;;;21.80;95.70;;;;;;4975685;28;20106;-78
2021/08/24 07:26:40;;;;;;;27.98;17.23;;;21.80;95.50;;;;;;4974638;28;20559;-78
2021/08/24 07:29:06;;;;;;;29.25;17.80;;;21.80;95.40;;;;;;4974869;28;20098;-78
2021/08/24 07:31:33;;;;;;;28.38;16.75;;;21.80;95.40;;;;;;4975153;28;20086;-80
2021/08/24 07:33:59;;;;;;;27.38;14.93;;;21.80;95.40;;;;;;4974392;28;20407;-80
2021/08/24 07:36:25;;;;;;;26.00;15.23;;;21.80;95.40;;;;;;4974489;28;20030;-80
2021/08/24 07:38:51;;;;;;;26.08;15.65;;;21.80;95.30;;;;;;4975050;28;20372;-80
2021/08/24 07:41:16;;;;;;;25.40;14.32;;;21.80;95.30;;;;;;4974204;28;20031;-80
2021/08/24 07:43:42;;;;;;;23.55;12.90;;;21.80;95.30;;;;;;4974098;28;20081;-80
2021/08/24 07:46:09;;;;;;;20.65;12.15;;;21.80;95.30;;;;;;4975059;28;20107;-80
2021/08/24 07:48:34;;;;;;;21.67;11.60;;;21.80;95.30;;;;;;4974177;28;20475;-80
2021/08/24 07:51:01;;;;;;;18.73;10.93;;;21.80;95.30;;;;;;4974562;28;20415;-81
2021/08/24 07:53:27;;;;;;;24.73;11.13;;;21.80;95.30;;;;;;4973782;28;20094;-80
2021/08/24 07:55:52;;;;;;;18.88;10.52;;;21.80;95.30;;;;;;4957624;28;20451;-79
2021/08/24 07:58:18;;;;;;;20.35;10.82;;;21.80;95.30;;;;;;4973686;28;20367;-79
2021/08/24 08:00:44;;;;;;;20.48;10.77;;;21.80;95.20;;;;;;4970564;28;20483;-79
2021/08/24 08:03:10;;;;;;;18.98;9.95;;;21.80;95.20;;;;;;4974850;28;20460;-79
2021/08/24 08:05:36;;;;;;;17.00;9.57;;;21.80;95.20;;;;;;4974584;28;20029;-79
2021/08/24 08:08:02;;;;;;;17.25;9.90;;;21.80;95.20;;;;;;4974758;28;20022;-79
2021/08/24 08:10:27;;;;;;;14.10;8.27;;;21.80;95.20;;;;;;4974453;28;20582;-78
2021/08/24 08:12:53;;;;;;;14.55;8.05;;;21.80;95.10;;;;;;4974113;28;20431;-79
2021/08/24 08:15:19;;;;;;;14.15;7.40;;;21.80;95.00;;;;;;4974875;28;20015;-79
2021/08/24 08:17:45;;;;;;;12.75;7.43;;;21.80;95.00;;;;;;4974347;28;20027;-79
2021/08/24 08:20:11;;;;;;;13.82;7.53;;;21.80;94.90;;;;;;4972725;28;20050;-78
2021/08/24 08:22:39;;;;;;;12.00;6.40;;;21.80;94.80;;;;;;4973762;28;20023;-78
2021/08/24 08:25:08;;;;;;;12.43;6.38;;;21.80;94.70;;;;;;4974502;28;20030;-79
2021/08/24 08:27:34;;;;;;;13.60;7.00;;;21.80;94.70;;;;;;4973730;28;20033;-78
2021/08/24 08:30:00;;;;;;;11.75;6.28;;;21.80;94.60;;;;;;4973723;28;20038;-79
2021/08/24 08:32:29;;;;;;;12.43;6.93;;;21.80;94.60;;;;;;4973671;28;20472;-79
2021/08/24 08:34:55;;;;;;;12.27;6.65;;;21.90;94.60;;;;;;4974348;28;20034;-79
2021/08/24 08:37:21;;;;;;;9.13;5.03;;;21.80;94.50;;;;;;4973896;28;20027;-79
2021/08/24 08:39:47;;;;;;;13.60;5.82;;;21.90;94.50;;;;;;4974502;28;20113;-79
2021/08/24 08:42:34;;;;;;;11.05;5.00;;;21.80;94.40;;;;;;4973999;28;20117;-78
2021/08/24 08:45:21;;;;;;;9.23;5.10;;;21.80;94.50;;;;;;4962183;28;20023;-78
2021/08/24 08:48:12;;;;;;;8.88;5.03;;;21.90;94.50;;;;;;4982698;28;20026;-79
2021/08/24 08:50:49;;;;;;;9.02;4.88;;;21.90;94.50;;;;;;4975031;28;20483;-78
2021/08/24 08:53:59;;;;;;;12.20;5.60;;;21.90;94.50;;;;;;4962645;28;20498;-79
2021/08/24 08:56:45;;;;;;;8.07;5.15;;;21.90;94.50;;;;;;4895028;29;20064;-79
2021/08/24 08:59:16;;;;;;;;;;;21.90;94.40;;;;;;4895161;29;20103;-79
2021/08/24 09:02:05;;;;;;;9.23;4.68;;;21.90;94.40;;;;;;4948112;28;20390;-79
2021/08/24 09:04:36;;;;;;;7.53;4.72;;;21.90;94.40;;;;;;4973642;28;20027;-79
2021/08/24 09:07:09;;;;;;;8.85;5.00;;;21.90;94.40;;;;;;4973769;28;20031;-79
2021/08/24 09:09:37;;;;;;;7.88;4.63;;;21.90;94.40;;;;;;4973307;28;20050;-80
2021/08/24 09:12:07;;;;;;;8.35;5.15;;;21.90;94.40;;;;;;4973236;28;20097;-79
2021/08/24 09:14:40;;;;;;;8.20;4.68;;;21.90;94.40;;;;;;4972592;28;20053;-80
2021/08/24 09:17:30;;;;;;;6.95;4.88;;;21.90;94.40;;;;;;4973540;28;20078;-79
2021/08/24 09:19:59;;;;;;;6.72;4.13;;;21.90;94.40;;;;;;4973448;28;20058;-80
2021/08/24 09:22:25;;;;;;;7.72;4.80;;;21.90;94.40;;;;;;4955747;28;20398;-80
2021/08/24 09:24:52;;;;;;;11.07;5.32;;;21.90;94.40;;;;;;4973477;28;20109;-80
2021/08/24 09:27:55;;;;;;;8.25;4.53;;;21.90;94.40;;;;;;4973607;28;20021;-80
2021/08/24 09:30:21;;;;;;;7.00;4.38;;;21.90;94.40;;;;;;4972152;28;20039;-80
2021/08/24 09:32:47;;;;;;;7.55;4.15;;;21.90;94.40;;;;;;4973475;28;20019;-80
2021/08/24 09:35:43;;;;;;;6.30;3.75;;;21.90;94.40;;;;;;4973190;28;20523;-81
2021/08/24 09:38:18;;;;;;;5.90;3.60;;;21.90;94.40;;;;;;4973189;28;20510;-80
2021/08/24 09:40:53;;;;;;;6.63;3.50;;;22.00;94.50;;;;;;4972827;28;20027;-81
2021/08/24 09:43:38;;;;;;;6.88;3.72;;;22.00;94.50;;;;;;4972639;28;20031;-79
2021/08/24 09:46:03;;;;;;;4.65;3.30;;;22.00;94.50;;;;;;4972404;28;20050;-80
2021/08/24 09:48:50;;;;;;;6.90;4.15;;;22.00;94.50;;;;;;4971366;28;20023;-79
2021/08/24 09:51:29;;;;;;;5.93;3.70;;;22.00;94.40;;;;;;4933317;28;20046;-80
2021/08/24 09:54:00;;;;;;;7.28;4.00;;;22.00;94.40;;;;;;4972421;28;20026;-80
2021/08/24 09:56:31;;;;;;;5.40;3.45;;;22.00;94.40;;;;;;4972650;28;20098;-79
2021/08/24 09:58:57;;;;;;;7.35;4.13;;;22.00;94.40;;;;;;4972278;28;20105;-79
2021/08/24 10:01:23;;;;;;;7.28;4.55;;;22.00;94.40;;;;;;4968879;28;20403;-78
2021/08/24 10:04:08;;;;;;;6.35;3.40;;;22.00;94.30;;;;;;4968967;28;20035;-77
2021/08/24 10:06:38;;;;;;;5.57;3.42;;;22.00;94.30;;;;;;4971124;28;20113;-76
2021/08/24 10:09:29;;;;;;;8.55;3.83;;;22.00;94.40;;;;;;4972830;28;20057;-77
2021/08/24 10:12:15;;;;;;;5.13;3.08;;;22.00;94.40;;;;;;4969390;28;20054;-78
2021/08/24 10:14:42;;;;;;;4.82;3.10;;;22.10;94.50;;;;;;4972149;28;20610;-77
2021/08/24 10:17:34;;;;;;;5.90;3.47;;;22.10;94.50;;;;;;4972510;28;20031;-78
2021/08/24 10:20:03;;;;;;;5.95;3.45;;;22.10;94.50;;;;;;4955359;28;20463;-77
2021/08/24 10:22:36;;;;;;;5.93;3.33;;;22.10;94.50;;;;;;4971457;28;20022;-77
2021/08/24 10:25:10;;;;;;;4.88;3.00;;;22.10;94.50;;;;;;4972271;28;20118;-77
2021/08/24 10:27:44;;;;;;;5.15;3.75;;;22.10;94.50;;;;;;4972109;28;20019;-78
2021/08/24 10:30:33;;;;;;;11.05;3.17;;;22.10;94.50;;;;;;4972326;28;20053;-77
2021/08/24 10:32:59;;;;;;;5.82;3.25;;;22.10;94.50;;;;;;4971121;28;20479;-77
2021/08/24 10:35:27;;;;;;;4.97;3.17;;;22.10;94.50;;;;;;4971591;28;20030;-77
2021/08/24 10:37:54;;;;;;;6.25;3.00;;;22.20;94.50;;;;;;4954423;28;20506;-77
2021/08/24 10:40:30;;;;;;;5.50;3.08;;;22.20;94.50;;;;;;4972059;28;20045;-77
2021/08/24 10:43:11;;;;;;;6.10;3.70;;;22.20;94.50;;;;;;4972166;28;20027;-76
2021/08/24 10:45:39;;;;;;;4.88;2.97;;;22.20;94.50;;;;;;4970608;28;20432;-77
2021/08/24 10:48:12;;;;;;;4.47;3.03;;;22.30;94.60;;;;;;4971637;28;20082;-76
2021/08/24 10:50:57;;;;;;;24.38;8.18;;;22.30;94.60;;;;;;4970806;28;20035;-77
2021/08/24 10:53:55;;;;;;;9.07;4.13;;;22.30;94.70;;;;;;4972051;28;20162;-78
2021/08/24 10:56:31;;;;;;;8.45;3.17;;;22.30;94.70;;;;;;4972324;28;20041;-77
2021/08/24 10:59:05;;;;;;;6.25;3.10;;;22.30;94.60;;;;;;4975801;28;20037;-79
2021/08/24 11:01:30;;;;;;;8.80;3.53;;;22.30;94.60;;;;;;4975606;28;20085;-79
2021/08/24 11:04:13;;;;;;;10.15;4.85;;;22.30;94.60;;;;;;4974013;28;20056;-77
2021/08/24 11:06:57;;;;;;;18.23;7.43;;;22.40;94.50;;;;;;4977471;28;20448;-77
2021/08/24 11:09:28;;;;;;;20.58;9.63;;;22.40;94.70;;;;;;4975654;28;20037;-77
2021/08/24 11:12:24;;;;;;;13.95;7.20;;;22.40;94.80;;;;;;4975077;28;20169;-77
2021/08/24 11:15:07;;;;;;;15.30;7.20;;;22.40;95.10;;;;;;4976128;28;20038;-77
2021/08/24 11:17:55;;;;;;;15.98;6.55;;;22.40;95.20;;;;;;4957384;28;20049;-77
2021/08/24 11:20:43;;;;;;;20.33;6.57;;;22.50;95.20;;;;;;4974465;28;20562;-77
2021/08/24 11:23:18;;;;;;;14.02;6.05;;;22.50;95.20;;;;;;4974726;28;20035;-77
2021/08/24 11:25:55;;;;;;;10.85;5.20;;;22.50;95.10;;;;;;4975232;28;20055;-78
2021/08/24 11:28:39;;;;;;;11.80;5.60;;;22.50;95.20;;;;;;4975664;28;20031;-77
2021/08/24 11:31:27;;;;;;;10.18;5.65;;;22.60;95.10;;;;;;4964978;28;20093;-78
2021/08/24 11:34:02;;;;;;;7.32;4.15;;;22.60;95.00;;;;;;4965778;28;20058;-77
2021/08/24 11:36:41;;;;;;;9.43;4.20;;;22.60;95.00;;;;;;4962588;28;20034;-78
2021/08/24 11:39:21;;;;;;;11.30;4.38;;;22.70;94.80;;;;;;4965061;28;20066;-78
2021/08/24 11:41:49;;;;;;;6.75;3.85;;;22.70;95.00;;;;;;4972130;28;20162;-77
2021/08/24 11:44:22;;;;;;;6.45;3.72;;;22.70;94.90;;;;;;4975164;28;20476;-77
2021/08/24 11:46:58;;;;;;;9.48;4.38;;;22.70;94.80;;;;;;4957963;28;20031;-77
2021/08/24 11:49:37;;;;;;;7.70;3.83;;;22.80;94.70;;;;;;4975004;28;20041;-77
2021/08/24 11:52:21;;;;;;;6.43;3.75;;;22.80;94.60;;;;;;4970449;28;20686;-77
2021/08/24 11:55:06;;;;;;;7.85;4.22;;;22.80;94.90;;;;;;4961172;28;20031;-77
2021/08/24 11:57:35;;;;;;;8.02;3.40;;;22.90;95.10;;;;;;4957300;28;20026;-77
2021/08/24 12:00:00;;;;;;;7.60;3.53;;;22.90;95.20;;;;;;4974973;28;20027;-77
2021/08/24 12:02:33;;;;;;;8.82;3.83;;;22.90;95.20;;;;;;4973839;28;20041;-77
2021/08/24 12:05:01;;;;;;;7.03;3.47;;;22.90;95.10;;;;;;4963137;28;20399;-77
2021/08/24 12:07:30;;;;;;;5.20;3.30;;;23.00;95.00;;;;;;4972925;28;20076;-77
2021/08/24 12:09:57;;;;;;;7.13;2.97;;;23.00;94.90;;;;;;4957256;28;20063;-77
2021/08/24 12:12:58;;;;;;;4.97;2.80;;;23.00;94.90;;;;;;4973928;28;20027;-77
2021/08/24 12:15:34;;;;;;;5.57;3.10;;;23.00;94.90;;;;;;4965049;28;20412;-78
2021/08/24 12:18:11;;;;;;;6.05;3.13;;;23.00;94.70;;;;;;4974862;28;20045;-79
2021/08/24 12:21:04;;;;;;;4.55;2.70;;;23.00;94.70;;;;;;4956627;28;20058;-78
2021/08/24 12:23:35;;;;;;;6.40;2.92;;;23.10;94.60;;;;;;4974388;28;20041;-78
2021/08/24 12:26:19;;;;;;;5.30;2.80;;;23.10;94.40;;;;;;4972023;28;20056;-78
2021/08/24 12:28:46;;;;;;;3.97;2.40;;;23.10;94.40;;;;;;4974223;28;20027;-78
2021/08/24 12:31:20;;;;;;;7.00;2.83;;;23.10;94.30;;;;;;4973826;28;20102;-78
2021/08/24 12:33:46;;;;;;;7.60;3.15;;;23.10;94.30;;;;;;4973896;28;20015;-78
2021/08/24 12:36:45;;;;;;;5.68;2.72;;;23.20;94.30;;;;;;4981348;28;20068;-80
2021/08/24 12:39:35;;;;;;;5.10;2.50;;;23.20;94.30;;;;;;4979611;28;20026;-79
2021/08/24 12:42:33;;;;;;;4.25;2.28;;;23.20;94.20;;;;;;4993373;28;20041;-79
2021/08/24 12:44:58;;;;;;;7.30;2.38;;;23.20;94.10;;;;;;4993476;28;20027;-81
2021/08/24 12:47:30;;;;;;;6.15;2.35;;;23.20;94.00;;;;;;4993367;28;20033;-80
2021/08/24 12:49:58;;;;;;;3.17;2.17;;;23.20;94.00;;;;;;4985517;28;20058;-78
2021/08/24 12:52:40;;;;;;;3.60;2.20;;;23.30;94.10;;;;;;4972696;28;20041;-80
2021/08/24 12:55:34;;;;;;;6.38;2.03;;;23.30;93.90;;;;;;4976210;28;20517;-81
2021/08/24 12:58:22;;;;;;;3.75;2.10;;;23.30;93.90;;;;;;4972226;28;20033;-81
2021/08/24 13:01:08;;;;;;;4.57;2.08;;;23.30;93.80;;;;;;4974233;28;20033;-83
2021/08/24 13:03:37;;;;;;;3.47;1.67;;;23.40;93.70;;;;;;4973098;28;20118;-79
2021/08/24 13:06:26;;;;;;;3.85;1.80;;;23.40;93.70;;;;;;4956061;28;20041;-78
2021/08/24 13:09:13;;;;;;;5.70;2.33;;;23.40;93.60;;;;;;4937163;29;20078;-79